Huvudsida
METAR-TAF:

METAR-TAF

Flygplatser :

Hafar Al-Batin, Saudiarabien

latitud: 27-54N, longitud: 045-32E, höjd: 413 m

METAR: saknas

Tid: 03:28 (00:28 UTC)

Väderprognos

Denna rapport gjordes för 19 timmar och 28 minuter sedan, klockan 05:00 UTC
Prognos gäller från 15 kl. 06 UTC till 15 kl. 20 UTC
Vind 12 kt från väst/sydväst
Sikt 10 km eller mer
Få moln på en höjd av 4000 ft
Blir
från 15 kl. 08 UTC till 15 kl. 10 UTC
Vind 12 kt från sydost
Blir
från 15 kl. 11 UTC till 15 kl. 13 UTC
Vind 13 kt från ost/nordost

TAF: OEKK 150500Z 1506/1520 25012KT 9999 FEW040 BECMG 1508/1510 13012KT BECMG 1511/1513 07013KT

Aktuella väderrapporter och prognoser från 4000 flygplatser (METAR- och TAF-rapporter).

De tillgängliga stationerna syns som gula och röda prickar på kartan.

För musen över prickarna för att se namnen på stationerna.

Klicka sedan för att få väderrapporter och prognoser.

För att ändra kartan: Klicka på de gröna knapparna med ett svart kors på för att zooma in; den gröna knappen med ett streck på för att zooma ut; eller på de gröna pilarna för angränsande kartor.


METAR-TAF: